createdAt,value
2024-03-02T00:02:13.588Z,100.00
2024-03-02T00:05:23.924Z,100.00
2024-03-02T00:08:27.475Z,100.00
2024-03-02T00:11:30.351Z,100.00
2024-03-02T00:14:33.276Z,100.00
2024-03-02T00:17:36.061Z,100.00
2024-03-02T00:20:38.809Z,100.00
2024-03-02T00:23:41.681Z,100.00
2024-03-02T00:26:46.726Z,100.00
2024-03-02T00:29:49.504Z,100.00
2024-03-02T00:32:54.565Z,100.00
2024-03-02T00:35:57.868Z,100.00
2024-03-02T00:39:00.807Z,100.00
2024-03-02T00:42:03.856Z,100.00
2024-03-02T00:45:09.406Z,100.00
2024-03-02T00:48:12.228Z,100.00
2024-03-02T00:51:14.949Z,100.00
2024-03-02T00:54:21.771Z,100.00
2024-03-02T00:57:27.320Z,100.00
2024-03-02T01:00:30.132Z,100.00
2024-03-02T01:03:33.910Z,100.00
2024-03-02T01:06:37.453Z,100.00
2024-03-02T01:09:40.284Z,100.00
2024-03-02T01:12:43.027Z,100.00
2024-03-02T01:15:45.829Z,100.00
2024-03-02T01:18:49.209Z,100.00
2024-03-02T01:21:52.259Z,100.00
2024-03-02T01:24:55.570Z,100.00
2024-03-02T01:27:58.286Z,100.00
2024-03-02T01:31:01.143Z,100.00
2024-03-02T01:34:04.227Z,100.00
2024-03-02T01:37:07.460Z,100.00
2024-03-02T01:40:11.270Z,100.00
2024-03-02T01:43:14.069Z,100.00
2024-03-02T01:46:16.885Z,100.00
2024-03-02T01:49:20.066Z,100.00
2024-03-02T01:52:22.831Z,100.00
2024-03-02T01:55:25.952Z,100.00
2024-03-02T01:58:29.126Z,100.00
2024-03-02T02:01:32.447Z,100.00
2024-03-02T02:04:35.220Z,100.00
2024-03-02T02:07:38.519Z,100.00
2024-03-02T02:10:41.399Z,100.00
2024-03-02T02:13:44.189Z,100.00
2024-03-02T02:16:47.233Z,100.00
2024-03-02T02:19:49.989Z,100.00
2024-03-02T02:23:03.891Z,100.00
2024-03-02T02:26:06.769Z,100.00
2024-03-02T02:29:09.423Z,100.00
2024-03-02T02:32:12.183Z,100.00
2024-03-02T02:35:15.205Z,100.00
2024-03-02T02:38:17.981Z,100.00
2024-03-02T02:41:20.763Z,100.00
2024-03-02T02:44:23.398Z,100.00
2024-03-02T02:47:27.540Z,100.00
2024-03-02T02:50:30.376Z,100.00
2024-03-02T02:53:33.007Z,100.00
2024-03-02T02:56:35.673Z,100.00
2024-03-02T02:59:38.424Z,100.00
2024-03-02T03:02:45.107Z,100.00
2024-03-02T03:05:47.851Z,100.00
2024-03-02T03:08:50.706Z,100.00
2024-03-02T03:11:53.446Z,100.00
2024-03-02T03:14:56.610Z,100.00
2024-03-02T03:17:59.371Z,100.00
2024-03-02T03:21:02.171Z,100.00
2024-03-02T03:24:05.273Z,100.00
2024-03-02T03:27:08.280Z,100.00
2024-03-02T03:30:11.630Z,100.00
2024-03-02T03:33:14.878Z,100.00
2024-03-02T03:36:17.608Z,100.00
2024-03-02T03:39:20.301Z,100.00
2024-03-02T03:42:23.074Z,100.00
2024-03-02T03:45:27.290Z,100.00
2024-03-02T03:48:32.130Z,100.00
2024-03-02T03:51:35.355Z,100.00
2024-03-02T03:54:39.771Z,100.00
2024-03-02T03:57:45.544Z,100.00
2024-03-02T04:00:48.324Z,100.00
2024-03-02T04:03:51.093Z,100.00
2024-03-02T04:06:53.807Z,100.00
2024-03-02T04:09:56.720Z,100.00
2024-03-02T04:12:59.489Z,100.00
2024-03-02T04:16:02.275Z,100.00
2024-03-02T04:19:05.334Z,100.00
2024-03-02T04:22:15.417Z,100.00
2024-03-02T04:25:24.130Z,100.00
2024-03-02T04:28:26.850Z,100.00
2024-03-02T04:31:30.086Z,100.00
2024-03-02T04:34:32.764Z,100.00
2024-03-02T04:37:36.062Z,100.00
2024-03-02T04:40:38.730Z,100.00
2024-03-02T04:43:41.626Z,100.00
2024-03-02T04:46:44.397Z,100.00
2024-03-02T04:49:47.529Z,100.00
2024-03-02T04:52:50.228Z,100.00
2024-03-02T04:56:25.070Z,100.00
2024-03-02T04:59:27.911Z,100.00
2024-03-02T05:02:30.526Z,100.00
2024-03-02T05:05:33.237Z,100.00
2024-03-02T05:08:35.990Z,100.00
2024-03-02T05:11:38.734Z,100.00
2024-03-02T05:14:41.428Z,100.00
2024-03-02T05:17:44.523Z,100.00
2024-03-02T05:20:47.338Z,100.00
2024-03-02T05:23:50.006Z,100.00
2024-03-02T05:26:52.661Z,100.00
2024-03-02T05:29:59.511Z,100.00
2024-03-02T05:33:02.539Z,100.00
2024-03-02T05:36:06.483Z,100.00
2024-03-02T05:39:11.444Z,100.00
2024-03-02T05:42:14.128Z,100.00
2024-03-02T05:45:17.925Z,100.00
2024-03-02T05:48:20.821Z,100.00
2024-03-02T05:51:23.527Z,100.00
2024-03-02T05:54:26.248Z,100.00
2024-03-02T05:57:40.314Z,100.00
2024-03-02T06:00:43.697Z,100.00
2024-03-02T06:03:46.484Z,100.00
2024-03-02T06:06:50.858Z,100.00
2024-03-02T06:09:53.918Z,100.00
2024-03-02T06:12:56.817Z,100.00
2024-03-02T06:15:59.817Z,100.00
2024-03-02T06:19:03.582Z,100.00
2024-03-02T06:22:06.915Z,100.00
2024-03-02T06:25:09.860Z,100.00
2024-03-02T06:28:12.688Z,100.00
2024-03-02T06:31:15.511Z,100.00
2024-03-02T06:34:18.747Z,100.00
2024-03-02T06:37:21.457Z,100.00
2024-03-02T06:40:24.118Z,100.00
2024-03-02T06:43:26.880Z,100.00
2024-03-02T06:46:29.568Z,100.00
2024-03-02T06:49:32.202Z,100.00
2024-03-02T06:52:34.863Z,100.00
2024-03-02T06:55:37.633Z,100.00
2024-03-02T06:58:40.330Z,100.00
2024-03-02T07:01:44.077Z,100.00
2024-03-02T07:04:47.062Z,100.00
2024-03-02T07:07:49.798Z,100.00
2024-03-02T07:10:52.466Z,100.00
2024-03-02T07:13:55.208Z,100.00
2024-03-02T07:16:57.951Z,100.00
2024-03-02T07:20:00.955Z,100.00
2024-03-02T07:23:03.814Z,100.00
2024-03-02T07:29:13.301Z,100.00
2024-03-02T07:32:16.209Z,100.00
2024-03-02T07:35:19.422Z,100.00
2024-03-02T07:38:23.199Z,100.00
2024-03-02T07:41:26.652Z,100.00
2024-03-02T07:44:29.366Z,100.00
2024-03-02T07:47:32.137Z,100.00
2024-03-02T07:50:36.281Z,100.00
2024-03-02T07:53:38.964Z,100.00
2024-03-02T07:56:41.696Z,100.00
2024-03-02T07:59:44.698Z,100.00
2024-03-02T08:02:47.627Z,100.00
2024-03-02T08:05:50.300Z,100.00
2024-03-02T08:08:52.997Z,100.00
2024-03-02T08:11:56.006Z,100.00
2024-03-02T08:14:58.766Z,100.00
2024-03-02T08:18:01.568Z,100.00
2024-03-02T08:21:04.578Z,100.00
2024-03-02T08:24:08.002Z,100.00
2024-03-02T08:27:10.721Z,100.00
2024-03-02T08:30:14.180Z,100.00
2024-03-02T08:33:17.062Z,100.00
2024-03-02T08:36:20.852Z,100.00
2024-03-02T08:39:23.778Z,100.00
2024-03-02T08:42:26.921Z,100.00
2024-03-02T08:45:30.015Z,100.00
2024-03-02T08:48:32.846Z,100.00
2024-03-02T08:51:35.739Z,100.00
2024-03-02T08:54:41.709Z,100.00
2024-03-02T08:57:44.721Z,100.00
2024-03-02T09:00:48.709Z,100.00
2024-03-02T09:03:51.867Z,100.00
2024-03-02T09:06:54.674Z,100.00
2024-03-02T09:09:57.678Z,100.00
2024-03-02T09:13:01.310Z,100.00
2024-03-02T09:16:05.414Z,100.00
2024-03-02T09:19:08.809Z,100.00
2024-03-02T09:22:11.574Z,100.00
2024-03-02T09:25:14.604Z,100.00
2024-03-02T09:28:17.636Z,100.00
2024-03-02T09:31:20.776Z,100.00
2024-03-02T09:34:23.924Z,100.00
2024-03-02T09:37:28.000Z,100.00
2024-03-02T09:40:31.018Z,100.00
2024-03-02T09:43:34.033Z,100.00
2024-03-02T09:46:37.761Z,100.00
2024-03-02T09:49:41.363Z,100.00
2024-03-02T09:52:44.671Z,100.00
2024-03-02T09:55:48.361Z,100.00
2024-03-02T09:58:51.410Z,100.00
2024-03-02T10:02:02.354Z,100.00
2024-03-02T10:05:05.582Z,100.00
2024-03-02T10:08:08.522Z,100.00
2024-03-02T10:11:12.195Z,100.00
2024-03-02T10:14:15.235Z,100.00
2024-03-02T10:17:19.444Z,100.00
2024-03-02T10:20:26.656Z,100.00
2024-03-02T10:23:29.373Z,100.00
2024-03-02T10:26:32.244Z,100.00
2024-03-02T10:29:34.973Z,100.00
2024-03-02T10:32:39.189Z,100.00
2024-03-02T10:35:42.281Z,100.00
2024-03-02T10:38:46.643Z,100.00
2024-03-02T10:41:53.350Z,100.00
2024-03-02T10:44:56.740Z,100.00
2024-03-02T10:48:02.037Z,100.00
2024-03-02T10:51:05.734Z,100.00
2024-03-02T10:54:08.417Z,100.00
2024-03-02T10:57:13.736Z,100.00
2024-03-02T11:00:16.694Z,100.00
2024-03-02T11:03:20.107Z,100.00
2024-03-02T11:06:24.050Z,100.00
2024-03-02T11:09:29.960Z,100.00
2024-03-02T11:13:08.194Z,100.00
2024-03-02T11:16:23.605Z,100.00
2024-03-02T11:19:27.485Z,100.00
2024-03-02T11:22:31.164Z,100.00
2024-03-02T11:25:34.133Z,91.39
2024-03-02T11:28:38.174Z,88.22
2024-03-02T11:32:01.767Z,100.00
2024-03-02T11:35:04.940Z,100.00
2024-03-02T11:38:08.486Z,100.00
2024-03-02T11:41:12.493Z,86.42
2024-03-02T11:44:16.335Z,65.21
2024-03-02T11:47:19.399Z,61.48
2024-03-02T11:50:41.443Z,72.70
2024-03-02T11:53:47.419Z,64.63
2024-03-02T11:56:50.166Z,52.60
2024-03-02T11:59:53.305Z,54.61
2024-03-02T12:03:03.312Z,60.19
2024-03-02T12:06:06.322Z,55.82
2024-03-02T12:09:12.901Z,55.79
2024-03-02T12:12:22.205Z,51.81
2024-03-02T12:15:29.286Z,54.75
2024-03-02T12:18:32.142Z,71.32
2024-03-02T12:21:34.961Z,88.56
2024-03-02T12:24:38.660Z,99.04
2024-03-02T12:27:42.007Z,100.00
2024-03-02T12:30:44.935Z,100.00
2024-03-02T12:33:48.029Z,100.00
2024-03-02T12:36:54.167Z,100.00
2024-03-02T12:39:57.179Z,100.00
2024-03-02T12:43:00.211Z,100.00
2024-03-02T12:46:03.505Z,100.00
2024-03-02T12:49:11.182Z,100.00
2024-03-02T12:52:14.720Z,97.48
2024-03-02T12:55:17.951Z,96.07
2024-03-02T12:58:24.329Z,72.37
2024-03-02T13:01:27.552Z,63.13
2024-03-02T13:04:32.176Z,58.91
2024-03-02T13:07:35.542Z,71.35
2024-03-02T13:10:39.275Z,84.80
2024-03-02T13:13:42.278Z,63.91
2024-03-02T13:16:47.878Z,54.14
2024-03-02T13:19:55.320Z,56.55
2024-03-02T13:22:58.556Z,52.40
2024-03-02T13:26:01.354Z,48.16
2024-03-02T13:29:04.187Z,45.03
2024-03-02T13:32:07.149Z,46.98
2024-03-02T13:35:12.482Z,46.49
2024-03-02T13:38:15.353Z,48.25
2024-03-02T13:41:18.051Z,46.17
2024-03-02T13:44:21.139Z,50.02
2024-03-02T13:47:24.045Z,55.53
2024-03-02T13:50:27.002Z,52.79
2024-03-02T13:53:29.981Z,48.19
2024-03-02T13:56:33.877Z,54.96
2024-03-02T13:59:37.274Z,49.56
2024-03-02T14:02:41.091Z,50.34
2024-03-02T14:05:44.742Z,46.41
2024-03-02T14:08:49.460Z,47.93
2024-03-02T14:11:53.000Z,48.13
2024-03-02T14:14:59.347Z,48.30
2024-03-02T14:18:02.222Z,45.30
2024-03-02T14:21:05.856Z,48.47
2024-03-02T14:24:08.702Z,46.58
2024-03-02T14:27:20.459Z,48.79
2024-03-02T14:30:31.333Z,47.56
2024-03-02T14:33:34.256Z,47.65
2024-03-02T14:36:37.214Z,48.76
2024-03-02T14:39:40.752Z,47.62
2024-03-02T14:42:45.320Z,47.31
2024-03-02T14:45:48.255Z,46.73
2024-03-02T14:48:51.419Z,45.97
2024-03-02T14:51:54.509Z,50.05
2024-03-02T14:54:57.353Z,48.43
2024-03-02T14:58:00.154Z,49.52
2024-03-02T15:01:03.231Z,52.46
2024-03-02T15:04:06.737Z,50.94
2024-03-02T15:07:09.669Z,55.34
2024-03-02T15:10:12.591Z,55.78
2024-03-02T15:13:15.687Z,58.41
2024-03-02T15:16:18.552Z,67.40
2024-03-02T15:19:21.465Z,71.05
2024-03-02T15:22:24.164Z,86.71
2024-03-02T15:25:26.883Z,92.71
2024-03-02T15:28:29.637Z,97.65
2024-03-02T15:31:32.685Z,100.00
2024-03-02T15:34:35.585Z,100.00
2024-03-02T15:37:38.393Z,100.00
2024-03-02T15:40:41.271Z,100.00
2024-03-02T15:43:44.277Z,100.00
2024-03-02T15:46:47.311Z,100.00
2024-03-02T15:49:51.049Z,100.00
2024-03-02T15:52:53.806Z,100.00
2024-03-02T15:55:56.518Z,100.00
2024-03-02T15:58:59.675Z,100.00
2024-03-02T16:02:02.630Z,100.00
2024-03-02T16:05:05.797Z,100.00
2024-03-02T16:08:08.681Z,100.00
2024-03-02T16:11:11.517Z,100.00
2024-03-02T16:14:17.512Z,100.00
2024-03-02T16:17:20.621Z,100.00
2024-03-02T16:20:23.443Z,100.00
2024-03-02T16:23:26.156Z,100.00
2024-03-02T16:26:29.062Z,100.00
2024-03-02T16:29:31.875Z,100.00
2024-03-02T16:32:37.660Z,100.00
2024-03-02T16:35:40.405Z,100.00
2024-03-02T16:38:45.001Z,100.00
2024-03-02T16:41:48.284Z,100.00
2024-03-02T16:44:55.851Z,100.00
2024-03-02T16:47:59.083Z,100.00
2024-03-02T16:51:01.991Z,100.00
2024-03-02T16:54:05.261Z,100.00
2024-03-02T16:57:08.428Z,100.00
2024-03-02T17:00:12.156Z,100.00
2024-03-02T17:03:15.081Z,100.00
2024-03-02T17:06:17.726Z,100.00
2024-03-02T17:09:20.356Z,100.00
2024-03-02T17:12:23.047Z,100.00
2024-03-02T17:15:25.719Z,100.00
2024-03-02T17:18:29.195Z,100.00
2024-03-02T17:21:32.480Z,100.00
2024-03-02T17:24:35.201Z,100.00
2024-03-02T17:27:37.906Z,100.00
2024-03-02T17:30:40.650Z,100.00
2024-03-02T17:33:43.640Z,100.00
2024-03-02T17:36:46.420Z,100.00
2024-03-02T17:39:49.329Z,100.00
2024-03-02T17:42:52.358Z,100.00
2024-03-02T17:45:55.344Z,100.00
2024-03-02T17:48:58.533Z,100.00
2024-03-02T17:52:01.759Z,100.00
2024-03-02T17:55:06.029Z,100.00
2024-03-02T17:58:09.077Z,100.00
2024-03-02T18:01:13.168Z,100.00
2024-03-02T18:04:16.313Z,100.00
2024-03-02T18:07:19.142Z,100.00
2024-03-02T18:10:21.923Z,100.00
2024-03-02T18:13:25.135Z,100.00
2024-03-02T18:16:28.361Z,100.00
2024-03-02T18:19:32.874Z,100.00
2024-03-02T18:22:36.362Z,100.00
2024-03-02T18:25:39.939Z,100.00
2024-03-02T18:28:43.023Z,100.00
2024-03-02T18:31:45.810Z,100.00
2024-03-02T18:34:48.755Z,100.00
2024-03-02T18:37:51.858Z,100.00
2024-03-02T18:40:58.883Z,100.00
2024-03-02T18:44:01.666Z,100.00
2024-03-02T18:47:08.105Z,100.00
2024-03-02T18:50:11.682Z,100.00
2024-03-02T18:53:15.163Z,100.00
2024-03-02T18:56:17.980Z,100.00
2024-03-02T18:59:20.908Z,100.00
2024-03-02T19:02:23.809Z,100.00
2024-03-02T19:05:27.286Z,100.00
2024-03-02T19:08:31.712Z,100.00
2024-03-02T19:11:37.550Z,100.00
2024-03-02T19:14:40.487Z,100.00
2024-03-02T19:17:46.628Z,100.00
2024-03-02T19:20:49.486Z,100.00
2024-03-02T19:23:52.599Z,100.00
2024-03-02T19:26:55.461Z,100.00
2024-03-02T19:29:58.775Z,100.00
2024-03-02T19:33:01.611Z,100.00
2024-03-02T19:36:05.558Z,100.00
2024-03-02T19:39:09.922Z,100.00
2024-03-02T19:42:13.017Z,100.00
2024-03-02T19:45:16.047Z,100.00
2024-03-02T19:48:19.187Z,100.00
2024-03-02T19:51:22.181Z,100.00
2024-03-02T19:54:25.074Z,100.00
2024-03-02T19:57:30.472Z,100.00
2024-03-02T20:00:33.589Z,100.00
2024-03-02T20:03:36.725Z,100.00
2024-03-02T20:06:39.880Z,100.00
2024-03-02T20:09:42.951Z,100.00
2024-03-02T20:12:45.776Z,100.00
2024-03-02T20:15:48.930Z,100.00
2024-03-02T20:18:52.391Z,100.00
2024-03-02T20:21:55.082Z,100.00
2024-03-02T20:24:58.168Z,100.00
2024-03-02T20:28:01.368Z,100.00
2024-03-02T20:31:04.675Z,100.00
2024-03-02T20:34:07.919Z,100.00
2024-03-02T20:37:10.719Z,100.00
2024-03-02T20:40:16.305Z,100.00
2024-03-02T20:43:19.234Z,100.00
2024-03-02T20:46:22.003Z,100.00
2024-03-02T20:49:25.171Z,100.00
2024-03-02T20:52:28.208Z,100.00
2024-03-02T20:55:31.212Z,100.00
2024-03-02T20:58:33.877Z,100.00
2024-03-02T21:01:38.313Z,100.00
2024-03-02T21:04:43.294Z,100.00
2024-03-02T21:07:46.290Z,100.00
2024-03-02T21:10:50.102Z,100.00
2024-03-02T21:13:53.009Z,100.00
2024-03-02T21:16:56.031Z,100.00
2024-03-02T21:19:59.031Z,100.00
2024-03-02T21:23:01.888Z,100.00
2024-03-02T21:26:05.042Z,100.00
2024-03-02T21:29:09.013Z,100.00
2024-03-02T21:32:11.783Z,100.00
2024-03-02T21:35:16.163Z,100.00
2024-03-02T21:38:19.181Z,100.00
2024-03-02T21:41:21.962Z,100.00
2024-03-02T21:44:24.897Z,100.00
2024-03-02T21:47:27.805Z,100.00
2024-03-02T21:50:31.797Z,100.00
2024-03-02T21:53:34.737Z,100.00
2024-03-02T21:56:37.667Z,100.00
2024-03-02T21:59:40.530Z,100.00
2024-03-02T22:02:43.262Z,100.00
2024-03-02T22:05:45.909Z,100.00
2024-03-02T22:08:48.641Z,100.00
2024-03-02T22:11:51.509Z,100.00
2024-03-02T22:14:54.280Z,100.00
2024-03-02T22:17:57.042Z,100.00
2024-03-02T22:20:59.933Z,100.00
2024-03-02T22:24:02.697Z,100.00
2024-03-02T22:27:05.630Z,100.00
2024-03-02T22:30:08.757Z,100.00
2024-03-02T22:33:11.850Z,100.00
2024-03-02T22:36:14.719Z,100.00
2024-03-02T22:39:17.774Z,100.00
2024-03-02T22:42:20.474Z,100.00
2024-03-02T22:45:23.142Z,100.00
2024-03-02T22:48:25.884Z,100.00
2024-03-02T22:51:28.783Z,100.00
2024-03-02T22:54:31.637Z,100.00
2024-03-02T22:57:34.498Z,100.00
2024-03-02T23:00:49.020Z,100.00
2024-03-02T23:03:52.405Z,100.00
2024-03-02T23:06:55.163Z,100.00
2024-03-02T23:09:57.996Z,100.00
2024-03-02T23:13:00.963Z,100.00
2024-03-02T23:16:04.543Z,100.00
2024-03-02T23:19:07.428Z,100.00
2024-03-02T23:22:11.566Z,100.00
2024-03-02T23:25:15.890Z,100.00
2024-03-02T23:28:18.753Z,100.00
2024-03-02T23:31:21.676Z,100.00
2024-03-02T23:34:24.571Z,100.00
2024-03-02T23:37:29.193Z,100.00
2024-03-02T23:40:57.405Z,100.00
2024-03-02T23:44:02.416Z,100.00
2024-03-02T23:47:07.021Z,100.00
2024-03-02T23:50:10.282Z,100.00
2024-03-02T23:53:13.178Z,100.00
2024-03-02T23:56:16.004Z,100.00
2024-03-02T23:59:18.833Z,100.00
